Time;durP1;ratioP1;P1;durP2;ratioP2;P2;SDS_P1;SDS_P2;PMS_P1;PMS_P2;Temp;Humidity;BMP_temperature;BMP_pressure;BME280_temperature;BME280_humidity;BME280_pressure;Samples;Min_cycle;Max_cycle;Signal;HPM_P1;HPM_P2
2021/11/27 00:02:12;;;;;;;15.80;8.52;;;;;;;0.27;82.19;93995.00;5087595;28;20048;-71
2021/11/27 00:04:38;;;;;;;17.85;8.77;;;;;;;0.27;82.05;93985.06;5088612;28;20039;-71
2021/11/27 00:07:05;;;;;;;18.42;9.18;;;;;;;0.25;82.14;93977.34;5087391;28;20434;-71
2021/11/27 00:09:33;;;;;;;14.90;8.60;;;;;;;0.29;82.11;93979.41;5088921;28;20040;-71
2021/11/27 00:11:59;;;;;;;16.02;8.60;;;;;;;0.31;82.16;93980.66;5087446;28;20047;-71
2021/11/27 00:14:26;;;;;;;14.93;7.85;;;;;;;0.37;82.27;93984.78;5088234;28;20518;-70
2021/11/27 00:16:53;;;;;;;16.80;7.97;;;;;;;0.40;81.99;93969.97;5087588;28;20047;-73
2021/11/27 00:19:21;;;;;;;14.20;7.88;;;;;;;0.42;82.02;93970.47;5087616;28;20056;-71
2021/11/27 00:21:48;;;;;;;14.10;7.13;;;;;;;0.43;81.93;93958.66;5087819;28;20043;-73
2021/11/27 00:24:14;;;;;;;15.73;8.20;;;;;;;0.43;81.70;93955.97;5087581;28;20056;-70
2021/11/27 00:26:41;;;;;;;15.77;7.97;;;;;;;0.45;81.54;93948.41;5088442;28;20058;-70
2021/11/27 00:29:08;;;;;;;13.32;6.68;;;;;;;0.47;81.43;93946.19;5086884;28;20059;-70
2021/11/27 00:31:36;;;;;;;15.73;8.35;;;;;;;0.50;81.40;93937.56;5088319;28;20072;-70
2021/11/27 00:34:03;;;;;;;16.25;7.60;;;;;;;0.52;81.09;93940.69;5086817;28;20576;-70
2021/11/27 00:36:31;;;;;;;13.90;7.40;;;;;;;0.51;80.87;93936.44;5088091;28;20553;-71
2021/11/27 00:38:58;;;;;;;12.82;6.45;;;;;;;0.54;80.67;93930.47;5087304;28;20036;-71
2021/11/27 00:41:24;;;;;;;14.23;7.82;;;;;;;0.55;80.65;93929.38;5087277;28;20054;-71
2021/11/27 00:43:51;;;;;;;12.35;6.68;;;;;;;0.58;80.48;93928.75;5087655;28;20048;-71
2021/11/27 00:46:18;;;;;;;12.50;7.22;;;;;;;0.59;80.47;93927.66;5087367;28;20087;-71
2021/11/27 00:48:46;;;;;;;14.88;7.43;;;;;;;0.60;80.39;93926.53;5087527;28;20047;-71
2021/11/27 00:51:18;;;;;;;15.00;7.15;;;;;;;0.60;80.38;93928.44;5086909;28;20048;-71
2021/11/27 00:53:46;;;;;;;12.18;6.70;;;;;;;0.59;80.30;93916.94;5087966;28;20044;-71
2021/11/27 00:56:14;;;;;;;14.52;7.22;;;;;;;0.59;80.30;93916.94;5086488;28;20519;-71
2021/11/27 00:58:41;;;;;;;13.05;7.15;;;;;;;0.59;80.34;93908.91;5088155;28;20052;-71
2021/11/27 01:01:11;;;;;;;11.90;6.78;;;;;;;0.62;80.23;93908.25;5086497;28;20131;-71
2021/11/27 01:03:40;;;;;;;13.40;6.80;;;;;;;0.65;79.94;93913.00;5088098;28;20070;-71
2021/11/27 01:06:09;;;;;;;11.18;6.28;;;;;;;0.65;79.66;93910.31;5086886;28;20051;-71
2021/11/27 01:08:36;;;;;;;14.38;6.85;;;;;;;0.65;79.96;93910.31;5087425;28;20075;-71
2021/11/27 01:11:08;;;;;;;11.65;6.18;;;;;;;0.66;79.69;93911.88;5086876;28;20040;-71
2021/11/27 01:13:37;;;;;;;11.85;6.47;;;;;;;0.67;79.65;93918.81;5086863;28;20043;-71
2021/11/27 01:16:04;;;;;;;11.07;6.32;;;;;;;0.69;79.53;93911.25;5087382;28;20407;-70
2021/11/27 01:18:31;;;;;;;10.13;6.20;;;;;;;0.73;79.46;93906.88;5086597;28;20055;-71
2021/11/27 01:21:02;;;;;;;13.43;7.00;;;;;;;0.74;79.34;93903.06;5088108;28;20410;-71
2021/11/27 01:23:29;;;;;;;13.85;6.75;;;;;;;0.74;79.15;93903.06;5086641;28;20510;-71
2021/11/27 01:25:56;;;;;;;13.00;6.60;;;;;;;0.76;79.29;93895.50;5087593;28;20537;-71
2021/11/27 01:28:25;;;;;;;10.85;6.45;;;;;;;0.80;79.29;93889.53;5086607;28;20067;-71
2021/11/27 01:30:55;;;;;;;11.40;6.40;;;;;;;0.84;79.33;93890.47;5087189;28;20036;-71
2021/11/27 01:33:22;;;;;;;14.60;6.80;;;;;;;0.86;79.22;93889.03;5086890;28;20052;-71
2021/11/27 01:35:50;;;;;;;14.27;7.25;;;;;;;0.90;79.34;93881.94;5086790;28;20044;-71
2021/11/27 01:38:16;;;;;;;16.50;7.55;;;;;;;0.92;79.34;93879.72;5087292;28;20051;-71
2021/11/27 01:40:43;;;;;;;11.85;6.53;;;;;;;0.94;79.36;93884.75;5086303;28;20044;-71
2021/11/27 01:43:10;;;;;;;13.18;6.97;;;;;;;0.93;79.15;93872.47;5087159;28;20411;-71
2021/11/27 01:45:39;;;;;;;13.13;6.32;;;;;;;0.94;79.19;93887.44;5086826;28;20153;-71
2021/11/27 01:48:08;;;;;;;13.65;6.95;;;;;;;0.93;79.19;93878.63;5086878;28;20072;-71
2021/11/27 01:50:41;;;;;;;12.07;6.25;;;;;;;0.94;79.15;93879.41;5087156;28;20048;-71
2021/11/27 01:53:09;;;;;;;12.38;6.93;;;;;;;0.94;79.18;93880.22;5086699;28;20572;-70
2021/11/27 01:55:37;;;;;;;12.27;6.57;;;;;;;0.95;79.21;93876.41;5087147;28;20063;-71
2021/11/27 01:58:04;;;;;;;10.70;5.85;;;;;;;0.97;79.17;93873.41;5086357;28;20051;-70
2021/11/27 02:00:33;;;;;;;12.88;6.15;;;;;;;0.97;79.56;93870.75;5087330;28;20047;-71
2021/11/27 02:03:02;;;;;;;11.95;6.32;;;;;;;1.01;79.60;93874.38;5086478;28;20047;-71
2021/11/27 02:05:29;;;;;;;13.73;6.40;;;;;;;1.07;79.40;93870.41;5087360;28;20051;-71
2021/11/27 02:07:56;;;;;;;14.65;7.15;;;;;;;1.07;79.45;93867.72;5086569;28;20044;-71
2021/11/27 02:10:22;;;;;;;12.50;6.60;;;;;;;1.08;79.32;93869.28;5084709;28;20044;-71
2021/11/27 02:12:49;;;;;;;10.38;6.13;;;;;;;1.09;79.38;93865.50;5086701;28;20048;-71
2021/11/27 02:15:18;;;;;;;13.43;6.35;;;;;;;1.09;79.30;93859.34;5090028;28;20418;-71
2021/11/27 02:17:44;;;;;;;12.18;6.55;;;;;;;1.11;79.38;93855.25;5090436;28;20048;-71
2021/11/27 02:20:12;;;;;;;11.80;6.90;;;;;;;1.09;79.28;93849.41;5089694;28;20056;-71
2021/11/27 02:22:41;;;;;;;14.02;6.10;;;;;;;1.11;79.27;93847.22;5090895;28;20090;-71
2021/11/27 02:25:12;;;;;;;11.88;6.63;;;;;;;1.13;79.14;93842.31;5089133;28;20063;-71
2021/11/27 02:27:39;;;;;;;10.85;6.57;;;;;;;1.16;79.36;93839.00;5091043;28;20055;-71
2021/11/27 02:30:06;;;;;;;13.55;7.28;;;;;;;1.21;79.23;93846.88;5089406;28;20055;-71
2021/11/27 02:32:33;;;;;;;11.98;5.70;;;;;;;1.21;79.15;93836.16;5090583;28;20044;-71
2021/11/27 02:34:59;;;;;;;12.85;6.45;;;;;;;1.24;79.05;93832.03;5089887;28;20040;-71
2021/11/27 02:37:26;;;;;;;11.25;6.15;;;;;;;1.25;78.93;93837.09;5089441;28;20048;-71
2021/11/27 02:39:54;;;;;;;13.20;6.60;;;;;;;1.25;78.89;93831.75;5089907;28;20055;-71
2021/11/27 02:42:20;;;;;;;10.52;5.53;;;;;;;1.26;78.81;93817.22;5089185;28;20070;-71
2021/11/27 02:44:47;;;;;;;11.15;6.10;;;;;;;1.28;78.81;93815.00;5090562;28;20055;-71
2021/11/27 02:47:13;;;;;;;12.80;6.43;;;;;;;1.32;78.96;93804.44;5088899;28;20051;-71
2021/11/27 02:49:40;;;;;;;13.70;6.55;;;;;;;1.35;78.74;93802.97;5090192;28;20051;-71
2021/11/27 02:52:07;;;;;;;13.10;7.00;;;;;;;1.38;78.55;93797.00;5088800;28;20040;-71
2021/11/27 02:54:34;;;;;;;10.10;6.10;;;;;;;1.38;78.37;93803.13;5090231;28;20056;-71
2021/11/27 02:57:03;;;;;;;11.10;5.85;;;;;;;1.40;78.45;93795.53;5089274;28;20661;-71
2021/11/27 02:59:31;;;;;;;10.00;5.95;;;;;;;1.48;77.64;93796.63;5089446;28;20048;-71
2021/11/27 03:02:00;;;;;;;11.98;6.20;;;;;;;1.49;77.78;93790.16;5089462;28;20051;-71
2021/11/27 03:04:28;;;;;;;13.23;5.72;;;;;;;1.49;77.72;93792.84;5089239;28;20036;-71
2021/11/27 03:06:55;;;;;;;11.75;5.30;;;;;;;1.51;77.94;93787.91;5089865;28;20146;-71
2021/11/27 03:09:23;;;;;;;11.25;6.05;;;;;;;1.53;77.75;93793.75;5088500;28;20050;-71
2021/11/27 03:11:52;;;;;;;11.02;5.45;;;;;;;1.53;77.49;93799.13;5089662;28;20507;-71
2021/11/27 03:14:22;;;;;;;10.30;5.50;;;;;;;1.55;77.43;93794.22;5088608;28;20040;-71
2021/11/27 03:16:49;;;;;;;12.75;6.15;;;;;;;1.58;77.63;93784.75;5089659;28;20048;-71
2021/11/27 03:19:16;;;;;;;10.00;5.30;;;;;;;1.59;76.93;93789.00;5088252;28;20055;-71
2021/11/27 03:21:44;;;;;;;9.38;5.95;;;;;;;1.62;76.93;93791.03;5089559;28;20052;-71
2021/11/27 03:24:10;;;;;;;10.63;5.60;;;;;;;1.62;76.96;93781.09;5088801;28;20495;-71
2021/11/27 03:26:38;;;;;;;10.95;5.65;;;;;;;1.62;76.57;93774.94;5089028;28;20044;-71
2021/11/27 03:29:05;;;;;;;8.65;5.38;;;;;;;1.62;76.84;93786.47;5088828;28;20055;-73
2021/11/27 03:31:34;;;;;;;8.95;5.13;;;;;;;1.62;76.56;93778.41;5088702;28;20040;-71
2021/11/27 03:34:00;;;;;;;9.48;5.38;;;;;;;1.63;76.84;93782.66;5089698;28;20043;-71
2021/11/27 03:36:27;;;;;;;9.98;5.53;;;;;;;1.64;76.69;93784.22;5088320;28;20040;-71
2021/11/27 03:38:54;;;;;;;10.85;5.55;;;;;;;1.64;76.58;93778.88;5085857;28;20047;-71
2021/11/27 03:41:20;;;;;;;8.93;4.93;;;;;;;1.66;76.15;93784.69;5087886;28;20422;-71
2021/11/27 03:43:47;;;;;;;9.68;5.63;;;;;;;1.68;76.04;93774.44;5088721;28;20072;-73
2021/11/27 03:46:14;;;;;;;8.13;5.28;;;;;;;1.69;75.81;93776.00;5081967;28;20581;-73
2021/11/27 03:48:44;;;;;;;8.38;4.95;;;;;;;1.73;76.09;93779.63;5088333;28;20039;-70
2021/11/27 03:51:15;;;;;;;10.90;5.72;;;;;;;1.79;76.29;93777.53;5088432;28;20055;-70
2021/11/27 03:53:42;;;;;;;8.00;4.45;;;;;;;1.79;76.16;93772.16;5087714;28;20048;-70
2021/11/27 03:56:12;;;;;;;9.43;4.82;;;;;;;1.81;75.87;93773.41;5088796;28;20063;-70
2021/11/27 03:58:39;;;;;;;9.45;5.65;;;;;;;1.83;75.85;93779.25;5087899;28;20067;-71
2021/11/27 04:01:09;;;;;;;8.57;5.22;;;;;;;1.83;75.60;93770.41;5088440;28;20051;-71
2021/11/27 04:03:38;;;;;;;9.10;5.43;;;;;;;1.83;75.74;93781.91;5088201;28;20494;-71
2021/11/27 04:06:07;;;;;;;10.00;5.68;;;;;;;1.82;75.68;93783.00;5088195;28;20059;-71
2021/11/27 04:08:33;;;;;;;9.10;5.32;;;;;;;1.83;75.57;93776.56;5088322;28;20051;-71
2021/11/27 04:11:01;;;;;;;9.27;5.55;;;;;;;1.84;75.84;93777.34;5088053;28;20050;-71
2021/11/27 04:13:27;;;;;;;9.40;5.35;;;;;;;1.82;75.92;93769.59;5088105;28;20053;-71
2021/11/27 04:15:54;;;;;;;10.02;5.60;;;;;;;1.82;75.78;93774.19;5087352;28;20043;-71
2021/11/27 04:18:21;;;;;;;11.13;6.35;;;;;;;1.82;76.22;93764.22;5088155;28;20414;-71
2021/11/27 04:20:47;;;;;;;9.25;5.47;;;;;;;1.80;76.37;93766.47;5087452;28;20415;-71
2021/11/27 04:23:15;;;;;;;11.52;6.65;;;;;;;1.76;76.49;93757.47;5088024;28;20044;-71
2021/11/27 04:25:42;;;;;;;10.73;6.15;;;;;;;1.74;76.64;93757.03;5087551;28;20105;-71
2021/11/27 04:28:09;;;;;;;9.85;5.88;;;;;;;1.76;76.83;93764.75;5087637;28;20052;-71
2021/11/27 04:30:35;;;;;;;9.45;6.05;;;;;;;1.78;76.93;93766.00;5087749;28;20051;-71
2021/11/27 04:33:02;;;;;;;10.80;6.05;;;;;;;1.79;77.04;93758.75;5088025;28;20142;-70
2021/11/27 04:35:30;;;;;;;9.50;5.85;;;;;;;1.81;76.87;93767.25;5088210;28;20051;-72
2021/11/27 04:37:57;;;;;;;11.70;6.90;;;;;;;1.81;76.67;93768.03;5087293;28;20051;-71
2021/11/27 04:40:27;;;;;;;10.70;6.32;;;;;;;1.83;76.86;93770.41;5087804;28;20059;-71
2021/11/27 04:42:53;;;;;;;10.02;5.70;;;;;;;1.86;76.82;93767.06;5087259;28;20044;-72
2021/11/27 04:45:21;;;;;;;9.50;5.72;;;;;;;1.89;77.07;93773.69;5087870;28;20605;-71
2021/11/27 04:47:48;;;;;;;10.20;6.40;;;;;;;1.94;76.78;93771.59;5087137;28;20047;-70
2021/11/27 04:50:15;;;;;;;11.40;6.30;;;;;;;1.94;76.48;93765.44;5087412;28;20513;-71
2021/11/27 04:52:42;;;;;;;10.52;5.40;;;;;;;1.94;76.29;93762.75;5087593;28;20040;-73
2021/11/27 04:55:10;;;;;;;9.65;5.65;;;;;;;1.94;76.28;93763.53;5087431;28;20048;-70
2021/11/27 04:57:38;;;;;;;9.65;5.40;;;;;;;1.95;75.98;93750.91;5087975;28;20050;-72
2021/11/27 05:00:08;;;;;;;8.98;4.97;;;;;;;1.99;75.85;93757.19;5086856;28;20052;-71
2021/11/27 05:02:35;;;;;;;8.60;5.10;;;;;;;1.99;75.97;93749.16;5088098;28;20068;-71
2021/11/27 05:05:01;;;;;;;8.68;4.95;;;;;;;2.01;75.95;93760.31;5086689;28;20048;-69
2021/11/27 05:07:28;;;;;;;8.20;5.05;;;;;;;2.03;75.94;93763.47;5088141;28;20055;-71
2021/11/27 05:09:56;;;;;;;9.25;5.10;;;;;;;2.06;75.87;93762.81;5087220;28;20044;-71
2021/11/27 05:12:22;;;;;;;8.15;4.85;;;;;;;2.09;76.03;93762.19;5087385;28;20514;-71
2021/11/27 05:14:50;;;;;;;8.52;4.82;;;;;;;2.11;76.24;93759.94;5087072;28;20678;-71
2021/11/27 05:17:17;;;;;;;8.07;4.82;;;;;;;2.16;76.10;93762.44;5086851;28;20086;-72
2021/11/27 05:19:43;;;;;;;8.30;4.70;;;;;;;2.17;76.11;93750.56;5087159;28;20056;-73
2021/11/27 05:22:10;;;;;;;7.05;4.30;;;;;;;2.19;76.28;93761.75;5086874;28;20044;-73
2021/11/27 05:24:36;;;;;;;7.18;4.55;;;;;;;2.26;76.22;93758.56;5087656;28;20048;-71
2021/11/27 05:27:04;;;;;;;7.35;4.20;;;;;;;2.32;76.26;93757.25;5086856;28;20063;-70
2021/11/27 05:29:30;;;;;;;7.65;3.83;;;;;;;2.35;76.20;93749.31;5087886;28;20032;-71
2021/11/27 05:32:04;;;;;;;6.05;3.45;;;;;;;2.39;76.24;93754.81;5086855;28;20047;-71
2021/11/27 05:34:34;;;;;;;6.45;3.90;;;;;;;2.44;76.06;93756.50;5087713;28;20122;-73
2021/11/27 05:37:03;;;;;;;6.22;3.50;;;;;;;2.44;75.37;93761.88;5087102;28;20094;-73
2021/11/27 05:39:29;;;;;;;5.85;3.75;;;;;;;2.44;75.34;93761.88;5087078;28;20407;-73
2021/11/27 05:41:56;;;;;;;5.20;3.50;;;;;;;2.45;75.56;93766.13;5087359;28;20036;-73
2021/11/27 05:44:23;;;;;;;5.20;3.08;;;;;;;2.46;75.08;93763.13;5086425;28;20052;-71
2021/11/27 05:46:49;;;;;;;5.82;3.83;;;;;;;2.43;75.12;93771.06;5087264;28;20063;-73
2021/11/27 05:49:17;;;;;;;6.57;3.25;;;;;;;2.42;75.05;93764.13;5088281;28;20048;-71
2021/11/27 05:51:44;;;;;;;6.15;3.80;;;;;;;2.43;75.16;93768.38;5091525;28;20491;-70
2021/11/27 05:54:10;;;;;;;7.10;3.92;;;;;;;2.46;75.41;93765.03;5090060;28;20048;-71
2021/11/27 05:56:37;;;;;;;5.53;3.20;;;;;;;2.48;75.34;93768.16;5091503;28;20055;-71
2021/11/27 05:59:03;;;;;;;5.53;3.50;;;;;;;2.52;74.74;93775.25;5090271;28;20067;-71
2021/11/27 06:01:31;;;;;;;6.13;3.50;;;;;;;2.52;75.13;93763.72;5091266;28;20059;-72
2021/11/27 06:03:58;;;;;;;5.75;3.47;;;;;;;2.52;75.08;93764.50;5090898;28;20055;-71
2021/11/27 06:06:26;;;;;;;5.82;3.10;;;;;;;2.55;75.24;93763.81;5090353;28;20048;-72
2021/11/27 06:08:52;;;;;;;6.22;3.63;;;;;;;2.57;75.34;93761.59;5090942;28;20055;-71
2021/11/27 06:11:19;;;;;;;5.68;3.20;;;;;;;2.60;75.11;93766.28;5089833;28;20134;-71
2021/11/27 06:13:45;;;;;;;6.68;3.42;;;;;;;2.62;75.17;93766.00;5091117;28;20673;-71
2021/11/27 06:16:12;;;;;;;6.28;3.75;;;;;;;2.64;74.75;93763.75;5089354;28;20059;-71
2021/11/27 06:18:38;;;;;;;6.68;3.80;;;;;;;2.64;74.96;93766.44;5091095;28;20058;-71
2021/11/27 06:21:06;;;;;;;7.30;3.90;;;;;;;2.65;74.84;93762.63;5089398;28;20055;-70
2021/11/27 06:23:34;;;;;;;6.10;3.50;;;;;;;2.65;74.85;93762.63;5090845;28;20075;-71
2021/11/27 06:26:01;;;;;;;8.85;4.07;;;;;;;2.65;74.85;93767.22;5090134;28;20411;-71
2021/11/27 06:28:28;;;;;;;7.07;3.90;;;;;;;2.64;75.05;93771.81;5090152;28;20047;-71
2021/11/27 06:30:55;;;;;;;6.03;3.55;;;;;;;2.65;74.76;93775.28;5090402;28;20593;-71
2021/11/27 06:33:21;;;;;;;7.93;3.83;;;;;;;2.63;74.82;93775.63;5089455;28;20415;-71
2021/11/27 06:35:48;;;;;;;6.47;3.65;;;;;;;2.66;74.85;93774.94;5090632;28;20465;-71
2021/11/27 06:38:15;;;;;;;6.15;3.70;;;;;;;2.71;74.85;93782.78;5089276;28;20056;-71
2021/11/27 06:40:43;;;;;;;6.50;4.30;;;;;;;2.72;74.87;93795.13;5090540;28;20044;-71
2021/11/27 06:43:09;;;;;;;6.45;4.10;;;;;;;2.75;75.06;93788.28;5089096;28;20051;-71
2021/11/27 06:45:36;;;;;;;5.88;3.70;;;;;;;2.78;75.09;93782.28;5090291;28;20051;-71
2021/11/27 06:48:02;;;;;;;6.35;3.70;;;;;;;2.82;75.07;93788.56;5089575;28;20047;-70
2021/11/27 06:50:29;;;;;;;6.88;3.97;;;;;;;2.79;75.16;93790.00;5090215;28;20412;-71
2021/11/27 06:52:55;;;;;;;6.80;4.00;;;;;;;2.78;74.91;93799.19;5089792;28;20044;-71
2021/11/27 06:55:22;;;;;;;6.53;3.70;;;;;;;2.80;75.05;93794.25;5089331;28;20048;-71
2021/11/27 06:57:50;;;;;;;6.40;4.35;;;;;;;2.82;75.20;93805.47;5090299;28;20044;-71
2021/11/27 07:00:16;;;;;;;7.50;4.40;;;;;;;2.81;75.31;93803.88;5088408;28;20044;-71
2021/11/27 07:02:43;;;;;;;6.68;4.28;;;;;;;2.82;75.24;93802.78;5090342;28;20532;-72
2021/11/27 07:05:09;;;;;;;9.57;5.18;;;;;;;2.81;75.10;93813.84;5088787;28;20051;-71
2021/11/27 07:07:36;;;;;;;8.85;4.75;;;;;;;2.79;75.51;93811.50;5090107;28;20052;-71
2021/11/27 07:10:03;;;;;;;7.25;4.32;;;;;;;2.80;75.32;93801.53;5088858;28;20047;-71
2021/11/27 07:12:30;;;;;;;6.28;3.80;;;;;;;2.79;75.54;93806.13;5090023;28;20085;-72
2021/11/27 07:14:58;;;;;;;7.65;4.47;;;;;;;2.79;75.70;93803.44;5089170;28;20044;-71
2021/11/27 07:17:25;;;;;;;7.45;4.00;;;;;;;2.81;75.59;93803.88;5089138;28;20052;-71
2021/11/27 07:19:51;;;;;;;5.72;3.53;;;;;;;2.83;75.56;93807.03;5089552;28;20453;-71
2021/11/27 07:22:18;;;;;;;5.28;3.80;;;;;;;2.83;75.77;93812.41;5088538;28;20518;-71
2021/11/27 07:24:44;;;;;;;5.00;3.15;;;;;;;2.85;75.84;93820.91;5089687;28;20047;-71
2021/11/27 07:27:11;;;;;;;5.68;3.30;;;;;;;2.88;75.66;93831.03;5088068;28;20052;-71
2021/11/27 07:29:39;;;;;;;6.47;3.88;;;;;;;2.88;75.46;93857.91;5089744;28;20055;-71
2021/11/27 07:32:07;;;;;;;5.38;3.10;;;;;;;2.69;76.15;93870.22;5088113;28;20044;-71
2021/11/27 07:34:34;;;;;;;6.47;3.53;;;;;;;2.49;76.93;93877.97;5089203;28;20059;-71
2021/11/27 07:37:00;;;;;;;4.88;3.30;;;;;;;2.44;76.60;93875.47;5088325;28;20059;-71
2021/11/27 07:39:27;;;;;;;4.65;2.90;;;;;;;2.44;76.35;93880.06;5088462;28;20046;-71
2021/11/27 07:41:53;;;;;;;6.95;3.05;;;;;;;2.49;76.72;93880.66;5088832;28;20047;-71
2021/11/27 07:44:20;;;;;;;5.88;2.85;;;;;;;2.50;76.84;93881.44;5086708;28;20044;-71
2021/11/27 07:46:52;;;;;;;4.85;3.53;;;;;;;2.45;77.67;93881.63;5089019;28;20067;-72
2021/11/27 07:49:21;;;;;;;8.18;4.10;;;;;;;2.32;78.66;93878.88;5087591;28;20051;-71
2021/11/27 07:51:48;;;;;;;6.95;3.58;;;;;;;2.18;79.66;93883.69;5089176;28;20044;-71
2021/11/27 07:54:15;;;;;;;6.95;3.72;;;;;;;2.05;80.55;93888.19;5087673;28;20858;-71
2021/11/27 07:56:42;;;;;;;7.82;4.22;;;;;;;1.98;81.24;93887.13;5088833;28;20525;-71
2021/11/27 07:59:09;;;;;;;7.30;4.53;;;;;;;1.91;81.53;93878.78;5088108;28;20072;-71
2021/11/27 08:01:36;;;;;;;7.15;4.55;;;;;;;1.86;81.75;93870.91;5088605;28;20503;-71
2021/11/27 08:04:03;;;;;;;7.95;4.78;;;;;;;1.78;82.01;93875.25;5087961;28;20044;-70
2021/11/27 08:06:31;;;;;;;9.80;5.50;;;;;;;1.72;82.34;93871.94;5088196;28;20055;-71
2021/11/27 08:08:57;;;;;;;11.65;5.53;;;;;;;1.71;82.92;93875.72;5088673;28;20040;-72
2021/11/27 08:11:25;;;;;;;11.13;6.20;;;;;;;1.71;83.32;93881.09;5086641;28;20043;-72
2021/11/27 08:13:52;;;;;;;12.43;6.88;;;;;;;1.69;83.74;93885.22;5089090;28;20093;-72
2021/11/27 08:16:19;;;;;;;11.13;6.28;;;;;;;1.64;84.09;93886.16;5087184;28;20048;-72
2021/11/27 08:18:46;;;;;;;13.13;7.55;;;;;;;1.55;84.33;93882.72;5088784;28;20052;-72
2021/11/27 08:21:13;;;;;;;10.45;6.80;;;;;;;1.53;84.75;93885.75;5087183;28;20067;-72
2021/11/27 08:23:41;;;;;;;12.27;6.80;;;;;;;1.50;84.79;93888.25;5088427;28;20048;-73
2021/11/27 08:26:07;;;;;;;14.02;7.07;;;;;;;1.47;85.33;93880.88;5087164;28;20063;-73
2021/11/27 08:28:34;;;;;;;12.98;7.55;;;;;;;1.44;85.66;93876.94;5087754;28;20142;-73
2021/11/27 08:31:01;;;;;;;12.32;7.30;;;;;;;1.45;86.21;93872.34;5087961;28;20055;-73
2021/11/27 08:33:27;;;;;;;14.00;7.28;;;;;;;1.48;86.47;93888.59;5087071;28;20040;-73
2021/11/27 08:35:54;;;;;;;11.70;6.97;;;;;;;1.53;86.73;93882.28;5088474;28;20051;-74
2021/11/27 08:38:20;;;;;;;13.48;7.53;;;;;;;1.59;86.83;93872.94;5086784;28;20052;-74
2021/11/27 08:40:48;;;;;;;12.43;7.03;;;;;;;1.64;87.02;93878.13;5088251;28;20044;-73
2021/11/27 08:43:15;;;;;;;12.38;7.03;;;;;;;1.71;87.15;93885.66;5086685;28;20054;-73
2021/11/27 08:45:44;;;;;;;12.98;7.18;;;;;;;1.75;86.99;93895.44;5087989;28;20047;-73
2021/11/27 08:48:10;;;;;;;15.13;7.43;;;;;;;1.80;86.92;93895.25;5086853;28;20044;-73
2021/11/27 08:50:37;;;;;;;12.68;6.85;;;;;;;1.80;86.82;93892.56;5087946;28;20048;-73
2021/11/27 08:53:04;;;;;;;12.40;7.28;;;;;;;1.82;86.85;93906.44;5087523;28;20036;-73
2021/11/27 08:55:30;;;;;;;12.90;6.72;;;;;;;1.88;87.14;93906.25;5087389;28;20052;-73
2021/11/27 08:57:58;;;;;;;14.60;7.05;;;;;;;1.92;87.16;93902.63;5087856;28;20051;-73
2021/11/27 09:00:25;;;;;;;13.02;6.43;;;;;;;1.96;87.06;93910.81;5086650;28;20048;-73
2021/11/27 09:02:55;;;;;;;12.35;6.65;;;;;;;1.95;87.05;93911.94;5088063;28;20058;-73
2021/11/27 09:05:22;;;;;;;11.82;6.28;;;;;;;1.96;87.14;93908.91;5086470;28;23028;-73
2021/11/27 09:07:48;;;;;;;11.82;6.68;;;;;;;1.99;87.20;93918.22;5088027;28;20048;-73
2021/11/27 09:10:15;;;;;;;15.07;6.65;;;;;;;1.98;87.42;93922.78;5086911;28;20544;-74
2021/11/27 09:12:42;;;;;;;10.95;6.22;;;;;;;2.03;87.26;93913.78;5087630;28;20040;-73
2021/11/27 09:15:10;;;;;;;10.35;6.47;;;;;;;2.07;87.45;93909.34;5087043;28;20056;-73
2021/11/27 09:17:37;;;;;;;13.88;6.72;;;;;;;2.10;87.38;93908.69;5087454;28;20075;-73
2021/11/27 09:20:05;;;;;;;11.75;6.78;;;;;;;2.18;87.42;93915.13;5087191;28;20059;-73
2021/11/27 09:22:31;;;;;;;13.30;7.55;;;;;;;2.20;87.72;93921.75;5088273;28;20044;-73
2021/11/27 09:24:58;;;;;;;15.50;7.80;;;;;;;2.25;87.56;93913.53;5091860;28;20048;-73
2021/11/27 09:27:25;;;;;;;14.85;7.72;;;;;;;2.27;87.73;93923.94;5090632;28;20052;-73
2021/11/27 09:29:51;;;;;;;18.50;8.05;;;;;;;2.30;87.69;93916.00;5091889;28;20048;-73
2021/11/27 09:32:19;;;;;;;13.13;6.70;;;;;;;2.33;87.68;93912.66;5090625;28;20503;-73
2021/11/27 09:34:46;;;;;;;11.32;6.25;;;;;;;2.42;87.84;93917.22;5091619;28;20135;-73
2021/11/27 09:37:15;;;;;;;10.88;6.20;;;;;;;2.42;86.83;93928.72;5090641;28;20781;-73
2021/11/27 09:39:43;;;;;;;11.43;5.90;;;;;;;2.37;86.75;93947.72;5090936;28;20051;-75
2021/11/27 09:42:12;;;;;;;10.98;6.10;;;;;;;2.25;86.67;93932.31;5090860;28;20130;-73
2021/11/27 09:44:39;;;;;;;9.43;6.72;;;;;;;2.21;87.24;93909.91;5090488;28;20566;-73
2021/11/27 09:47:06;;;;;;;11.00;6.65;;;;;;;2.23;87.72;93923.78;5091355;28;20110;-73
2021/11/27 09:49:38;;;;;;;13.98;6.50;;;;;;;2.27;87.75;93935.44;5090458;28;20057;-73
2021/11/27 09:52:04;;;;;;;9.60;5.88;;;;;;;2.27;87.70;93935.44;5091143;28;20067;-73
2021/11/27 09:54:32;;;;;;;9.38;4.90;;;;;;;2.26;87.24;93947.31;5090673;28;20055;-73
2021/11/27 09:56:59;;;;;;;9.77;5.10;;;;;;;2.19;87.00;93949.69;5090983;28;20070;-73
2021/11/27 09:59:26;;;;;;;9.77;5.03;;;;;;;2.21;87.27;93947.50;5090156;28;20046;-73
2021/11/27 10:01:54;;;;;;;9.38;5.00;;;;;;;2.19;87.40;93948.91;5090513;28;20047;-73
2021/11/27 10:04:23;;;;;;;10.60;4.90;;;;;;;2.14;87.59;93949.91;5090439;28;20052;-73
2021/11/27 10:06:51;;;;;;;7.95;4.85;;;;;;;2.14;87.66;93946.41;5090343;28;20044;-73
2021/11/27 10:09:20;;;;;;;9.27;5.15;;;;;;;2.15;87.78;93943.41;5090574;28;20051;-72
2021/11/27 10:11:48;;;;;;;9.20;5.40;;;;;;;2.20;88.15;93950.50;5090097;28;20503;-73
2021/11/27 10:14:15;;;;;;;11.63;5.82;;;;;;;2.26;88.38;93938.47;5090842;28;20048;-73
2021/11/27 10:17:02;;;;;;;9.82;5.60;;;;;;;2.38;88.83;93935.06;5089984;28;20048;-72
2021/11/27 10:19:44;;;;;;;9.23;5.30;;;;;;;2.46;88.76;93939.63;5090180;28;20048;-73
2021/11/27 10:22:15;;;;;;;11.88;5.32;;;;;;;2.52;88.75;93938.31;5090221;28;20055;-73
2021/11/27 10:24:46;;;;;;;8.88;5.40;;;;;;;2.58;88.38;93928.94;5090055;28;20070;-73
2021/11/27 10:27:21;;;;;;;11.82;6.75;;;;;;;2.65;88.38;93934.56;5090610;28;20074;-74
2021/11/27 10:30:04;;;;;;;10.68;5.70;;;;;;;2.73;87.98;93947.19;5090038;28;20074;-74
2021/11/27 10:32:34;;;;;;;9.65;5.53;;;;;;;2.73;87.11;93952.56;5090339;28;20557;-73
2021/11/27 10:35:01;;;;;;;9.48;6.00;;;;;;;2.77;87.28;93945.41;5088794;28;20043;-73
2021/11/27 10:37:31;;;;;;;14.48;6.40;;;;;;;2.82;87.81;93947.91;5089495;28;20135;-73
2021/11/27 10:40:00;;;;;;;9.35;5.68;;;;;;;2.84;87.49;93945.69;5090050;28;20774;-73
2021/11/27 10:42:27;;;;;;;10.75;6.28;;;;;;;2.98;88.13;93947.31;5088825;28;20043;-73
2021/11/27 10:44:55;;;;;;;10.35;6.32;;;;;;;3.12;88.47;93942.44;5089907;28;20059;-73
2021/11/27 10:47:23;;;;;;;9.38;5.35;;;;;;;3.18;88.09;93941.13;5088944;28;20055;-73
2021/11/27 10:49:51;;;;;;;8.90;4.97;;;;;;;3.16;86.73;93943.38;5090131;28;20048;-73
2021/11/27 10:52:20;;;;;;;11.40;5.50;;;;;;;3.16;85.79;93948.75;5089148;28;20060;-73
2021/11/27 10:54:52;;;;;;;8.90;5.30;;;;;;;3.03;85.71;93949.81;5089903;28;20040;-73
2021/11/27 10:57:33;;;;;;;10.32;5.60;;;;;;;2.97;86.57;93940.34;5089283;28;20048;-73
2021/11/27 11:00:03;;;;;;;11.45;5.75;;;;;;;2.99;87.06;93949.69;5089150;28;20547;-73
2021/11/27 11:02:34;;;;;;;9.52;6.03;;;;;;;3.01;87.12;93952.03;5090097;28;20087;-73
2021/11/27 11:05:06;;;;;;;10.57;5.65;;;;;;;3.02;87.04;93951.69;5088865;28;20048;-73
2021/11/27 11:07:33;;;;;;;8.75;6.03;;;;;;;3.04;86.99;93946.00;5090274;28;20040;-72
2021/11/27 11:10:19;;;;;;;9.45;6.38;;;;;;;3.06;86.77;93943.75;5089225;28;20149;-72
2021/11/27 11:12:48;;;;;;;9.82;6.28;;;;;;;3.09;87.18;93953.88;5089598;28;20570;-72
2021/11/27 11:15:20;;;;;;;11.60;6.53;;;;;;;3.10;86.93;93953.53;5089121;28;20048;-73
2021/11/27 11:17:49;;;;;;;10.77;5.90;;;;;;;3.09;87.37;93951.19;5089060;28;20060;-73
2021/11/27 11:20:18;;;;;;;10.38;6.20;;;;;;;3.13;87.65;93949.38;5089370;28;20052;-73
2021/11/27 11:23:17;;;;;;;9.18;5.63;;;;;;;3.13;87.10;93954.75;5088756;28;20044;-73
2021/11/27 11:26:01;;;;;;;10.00;6.03;;;;;;;3.17;87.23;93962.97;5006785;28;20061;-73
2021/11/27 11:28:29;;;;;;;;;;;;;;;3.15;87.03;93955.25;5079881;28;20044;-73
2021/11/27 11:31:00;;;;;;;9.85;5.50;;;;;;;3.12;86.98;93948.59;5088795;28;19927;-73
2021/11/27 11:33:27;;;;;;;12.57;6.35;;;;;;;3.17;87.19;93941.47;5089216;28;20136;-73
2021/11/27 11:35:54;;;;;;;8.82;5.38;;;;;;;3.16;86.98;93943.38;5088406;28;20047;-73
2021/11/27 11:38:21;;;;;;;11.10;6.20;;;;;;;3.22;87.39;93947.41;5089096;28;20052;-73
2021/11/27 11:40:49;;;;;;;8.00;5.25;;;;;;;3.29;87.49;93947.69;5088228;28;20786;-73